Terminal Aerodrome Forecast
Issued by NWS Northern Indiana

Home | Current Version | Previous Version | Graphics & Text | Print | Product List | Glossary On
Versions: 1 2 3 4 5 6 7 8 9 10 11 12 13 14 15 16 17 18 19 20 21 22
000
FTUS43 KIWX 232320
TAFFWA
TAF
KFWA 232320Z 2400/2424 05006KT P6SM SCT100 BKN200
     FM241000 06006KT P6SM VCSH BKN050
     FM241600 06008KT P6SM SHRA OVC040
     FM242100 06008KT 4SM SHRA BR OVC030=

USA.gov is the U.S. government's official web portal to all federal, state and local government web resources and services.